Time;durP1;ratioP1;P1;durP2;ratioP2;P2;SDS_P1;SDS_P2;PMS_P1;PMS_P2;Temp;Humidity;BMP_temperature;BMP_pressure;BME280_temperature;BME280_humidity;BME280_pressure;Samples;Min_cycle;Max_cycle;Signal;HPM_P1;HPM_P2
2021/12/11 00:01:37;;;;;;;;;;;;;;;1.27;83.50;100122.66;5085612;28;20048;-68
2021/12/11 00:04:09;;;;;;;36.53;17.05;;;;;;;1.25;82.64;100129.78;5066498;28;19921;-68
2021/12/11 00:06:41;;;;;;;39.33;18.30;;;;;;;1.23;83.50;100134.28;5069212;28;20065;-68
2021/12/11 00:09:18;;;;;;;43.10;18.85;;;;;;;1.23;82.55;100141.31;5067459;28;20405;-69
2021/12/11 00:11:51;;;;;;;39.97;18.33;;;;;;;1.24;82.44;100141.19;5067986;28;20119;-68
2021/12/11 00:14:18;;;;;;;38.67;19.55;;;;;;;1.22;82.40;100148.31;5048981;28;20041;-68
2021/12/11 00:16:45;;;;;;;43.13;19.80;;;;;;;1.18;82.87;100159.91;5049036;28;20091;-67
2021/12/11 00:19:19;;;;;;;40.45;19.45;;;;;;;1.14;82.68;100153.22;5059664;28;20091;-67
2021/12/11 00:21:46;;;;;;;37.95;19.30;;;;;;;1.19;82.82;100171.22;5067267;28;20053;-67
2021/12/11 00:24:19;;;;;;;37.90;18.58;;;;;;;1.21;82.85;100177.97;5068739;28;20041;-67
2021/12/11 00:26:53;;;;;;;38.67;18.23;;;;;;;1.11;83.10;100177.81;5067591;28;20480;-67
2021/12/11 00:29:23;;;;;;;33.67;17.92;;;;;;;1.19;82.32;100199.94;5051687;28;20055;-67
2021/12/11 00:32:00;;;;;;;36.25;18.92;;;;;;;1.19;82.42;100195.56;5065102;28;20475;-68
2021/12/11 00:34:27;;;;;;;35.17;17.92;;;;;;;1.23;82.34;100211.84;5058422;28;20502;-67
2021/12/11 00:36:58;;;;;;;37.10;18.30;;;;;;;1.15;82.55;100209.78;5037248;28;20445;-67
2021/12/11 00:39:25;;;;;;;34.90;18.35;;;;;;;1.14;83.13;100214.16;5055216;28;20516;-68
2021/12/11 00:41:56;;;;;;;36.08;17.70;;;;;;;1.19;82.90;100213.00;5055231;28;20041;-67
2021/12/11 00:44:33;;;;;;;;;;;;;;;1.18;82.49;100227.00;5037976;28;20041;-67
2021/12/11 00:47:13;;;;;;;35.33;17.67;;;;;;;1.16;82.79;100229.72;5054000;28;19943;-67
2021/12/11 00:52:43;;;;;;;39.55;18.30;;;;;;;1.14;83.25;100239.44;5119048;27;20376;-67
2021/12/11 00:55:22;;;;;;;42.03;18.45;;;;;;;1.26;84.16;100248.22;5110371;28;20074;-68
2021/12/11 00:58:04;;;;;;;39.33;18.05;;;;;;;1.22;83.83;100238.91;5092509;28;20481;-67
2021/12/11 01:00:34;;;;;;;;;;;;;;;1.16;83.49;100255.84;5110879;28;20070;-66
2021/12/11 01:03:01;;;;;;;35.25;17.75;;;;;;;1.04;84.32;100265.38;5110166;28;19963;-66
2021/12/11 01:05:36;;;;;;;36.63;18.98;;;;;;;1.09;83.83;100262.44;5108674;28;20043;-67
2021/12/11 01:08:15;;;;;;;41.03;18.85;;;;;;;1.04;83.94;100270.59;5111715;28;20036;-68
2021/12/11 01:10:42;;;;;;;43.40;19.63;;;;;;;1.11;84.61;100276.22;5111897;28;20040;-66
2021/12/11 01:13:10;;;;;;;38.97;19.50;;;;;;;1.04;84.90;100286.28;5119462;28;20040;-68
2021/12/11 01:15:49;;;;;;;38.25;18.90;;;;;;;1.12;83.60;100297.03;5109392;28;20047;-68
2021/12/11 01:21:12;;;;;;;36.42;18.65;;;;;;;1.12;84.04;100314.50;5131246;27;20383;-68
2021/12/11 01:23:56;;;;;;;37.67;18.73;;;;;;;1.20;83.98;100319.19;5094042;28;20038;-68
2021/12/11 01:26:23;;;;;;;38.67;19.02;;;;;;;1.25;84.02;100328.38;5109360;28;20043;-68
2021/12/11 01:28:52;;;;;;;42.97;20.80;;;;;;;1.25;83.83;100332.78;5110464;28;20043;-68
2021/12/11 01:31:21;;;;;;;41.28;19.67;;;;;;;1.24;84.27;100345.03;5109091;28;20047;-68
2021/12/11 01:33:50;;;;;;;46.80;22.10;;;;;;;1.34;85.47;100343.44;5090636;28;20550;-68
2021/12/11 01:36:17;;;;;;;41.65;20.30;;;;;;;1.32;85.15;100347.94;5110221;28;20048;-68
2021/12/11 01:38:45;;;;;;;37.45;19.90;;;;;;;1.31;84.66;100346.28;5109908;28;20451;-68
2021/12/11 01:41:18;;;;;;;42.38;21.13;;;;;;;1.38;84.21;100367.59;5092318;28;20500;-68
2021/12/11 01:43:50;;;;;;;42.17;22.05;;;;;;;1.42;85.94;100370.84;5110204;28;20100;-68
2021/12/11 01:46:21;;;;;;;45.47;22.33;;;;;;;1.47;85.32;100382.66;5110239;28;20040;-68
2021/12/11 01:48:51;;;;;;;53.97;22.47;;;;;;;1.57;85.47;100388.09;5109800;28;20131;-68
2021/12/11 01:51:28;;;;;;;51.45;22.85;;;;;;;1.85;85.57;100400.09;5108755;28;20043;-68
2021/12/11 01:54:03;;;;;;;45.55;21.83;;;;;;;1.75;86.16;100400.84;5091825;28;20065;-68
2021/12/11 01:56:32;;;;;;;51.15;22.98;;;;;;;1.94;85.26;100406.50;5108663;28;20040;-68
2021/12/11 01:59:05;;;;;;;46.85;22.00;;;;;;;1.91;85.74;100411.91;5092047;28;20039;-68
2021/12/11 02:01:41;;;;;;;52.45;22.92;;;;;;;1.87;85.97;100413.09;5128599;28;20061;-68
2021/12/11 02:04:10;;;;;;;54.60;22.92;;;;;;;1.79;85.96;100418.84;5110285;28;20073;-68
2021/12/11 02:06:41;;;;;;;52.10;23.25;;;;;;;1.70;86.73;100424.72;5128988;28;20040;-68
2021/12/11 02:09:20;;;;;;;61.70;24.88;;;;;;;1.71;86.90;100426.38;5128649;28;20077;-69
2021/12/11 02:11:50;;;;;;;67.32;24.30;;;;;;;1.63;87.46;100431.31;5129978;27;20126;-68
2021/12/11 02:14:25;;;;;;;55.13;24.83;;;;;;;1.72;87.01;100444.56;5129730;27;20039;-68
2021/12/11 02:16:53;;;;;;;66.82;23.90;;;;;;;1.70;87.46;100446.47;5129025;27;20499;-68
2021/12/11 02:19:29;;;;;;;61.95;24.75;;;;;;;1.69;87.86;100450.03;5111342;28;20051;-68
2021/12/11 02:22:09;;;;;;;67.82;25.33;;;;;;;1.67;88.00;100454.53;5126578;27;20036;-68
2021/12/11 02:24:52;;;;;;;61.28;22.77;;;;;;;1.60;88.35;100458.50;5091056;28;20522;-68
2021/12/11 02:27:26;;;;;;;55.78;24.05;;;;;;;1.67;87.39;100451.06;5109377;28;20141;-68
2021/12/11 02:30:09;;;;;;;61.72;23.85;;;;;;;1.65;87.50;100476.47;5107880;28;20050;-68
2021/12/11 02:32:43;;;;;;;54.65;23.48;;;;;;;1.55;87.97;100478.88;5094001;28;20408;-67
2021/12/11 02:35:15;;;;;;;64.38;23.58;;;;;;;1.49;88.20;100477.53;5095469;28;20040;-68
2021/12/11 02:37:48;;;;;;;;;;;;;;;1.59;88.45;100482.13;5094329;28;20036;-68
2021/12/11 02:40:28;;;;;;;57.95;20.77;;;;;;;1.34;88.70;100488.97;5097071;28;19943;-68
2021/12/11 02:43:19;;;;;;;52.88;18.73;;;;;;;1.47;88.44;100489.00;5098261;28;20138;-68
2021/12/11 02:45:56;;;;;;;48.70;22.00;;;;;;;1.37;89.26;100495.81;5115759;28;20040;-68
2021/12/11 02:48:41;;;;;;;66.85;22.73;;;;;;;1.47;89.00;100504.69;5094845;28;20318;-68
2021/12/11 02:51:19;;;;;;;57.25;22.10;;;;;;;1.43;89.34;100506.66;5094010;28;20085;-68
2021/12/11 02:53:55;;;;;;;54.67;23.25;;;;;;;1.44;89.51;100508.34;5095282;28;20040;-68
2021/12/11 02:56:30;;;;;;;56.83;21.80;;;;;;;1.38;89.58;100511.34;5094118;28;20043;-67
2021/12/11 02:59:02;;;;;;;76.20;23.03;;;;;;;1.47;88.92;100515.16;5095123;28;20079;-68
2021/12/11 03:01:47;;;;;;;58.58;22.45;;;;;;;1.40;89.07;100519.97;5094110;28;20309;-68
2021/12/11 03:04:23;;;;;;;64.75;23.90;;;;;;;1.28;89.90;100508.50;5092306;28;20075;-68
2021/12/11 03:06:52;;;;;;;63.50;23.80;;;;;;;1.34;89.17;100515.13;5109724;28;20412;-68
2021/12/11 03:09:24;;;;;;;67.22;25.92;;;;;;;1.23;89.55;100530.66;5093358;28;20396;-68
2021/12/11 03:11:54;;;;;;;63.30;25.08;;;;;;;1.47;89.23;100529.03;5093820;28;20085;-68
2021/12/11 03:14:24;;;;;;;64.47;24.65;;;;;;;1.63;87.82;100536.72;5112902;28;20062;-68
2021/12/11 03:16:52;;;;;;;67.72;24.92;;;;;;;1.53;87.72;100540.91;5113416;28;20046;-68
2021/12/11 03:19:23;;;;;;;73.32;25.42;;;;;;;1.42;88.76;100544.22;5105881;28;20051;-68
2021/12/11 03:21:51;;;;;;;;;;;;;;;1.48;88.84;100542.97;5114883;28;20040;-68
2021/12/11 03:24:20;;;;;;;61.10;21.90;;;;;;;1.42;89.27;100553.81;5125870;28;19930;-67
2021/12/11 03:26:51;;;;;;;55.78;23.75;;;;;;;1.43;89.53;100555.50;5118879;28;20040;-67
2021/12/11 03:29:18;;;;;;;65.38;25.55;;;;;;;1.50;88.32;100557.63;5115162;28;20122;-68
2021/12/11 03:31:46;;;;;;;55.65;25.13;;;;;;;1.43;89.16;100573.81;5113493;28;20619;-68
2021/12/11 03:34:19;;;;;;;55.17;24.00;;;;;;;1.45;89.58;100571.94;5113113;28;20051;-68
2021/12/11 03:36:46;;;;;;;65.82;26.40;;;;;;;1.36;89.47;100575.97;5096718;28;20118;-68
2021/12/11 03:39:18;;;;;;;61.42;25.83;;;;;;;1.65;87.69;100574.06;5112854;28;20036;-68
2021/12/11 03:41:46;;;;;;;;;;;;;;;1.66;88.38;100574.94;5113617;28;20500;-67
2021/12/11 03:44:14;;;;;;;68.15;24.80;;;;;;;1.71;88.12;100575.44;5112721;28;20369;-68
2021/12/11 03:46:42;;;;;;;61.15;25.25;;;;;;;1.60;88.00;100580.53;5114534;28;20445;-67
2021/12/11 03:49:15;;;;;;;52.42;22.90;;;;;;;1.79;87.11;100583.63;5114433;28;20111;-68
2021/12/11 03:51:48;;;;;;;58.55;25.05;;;;;;;1.71;87.83;100584.16;5114445;28;20063;-68
2021/12/11 03:54:23;;;;;;;59.95;25.85;;;;;;;1.78;86.85;100591.59;5114670;28;20047;-68
2021/12/11 03:56:50;;;;;;;66.07;27.95;;;;;;;1.57;87.31;100599.06;5114360;28;20136;-68
2021/12/11 03:59:18;;;;;;;63.95;27.08;;;;;;;1.66;88.02;100604.53;5114217;27;20073;-68
2021/12/11 04:01:49;;;;;;;57.70;25.77;;;;;;;1.71;87.14;100607.69;5113079;28;20074;-68
2021/12/11 04:04:22;;;;;;;62.33;26.88;;;;;;;1.71;87.67;100612.91;5094278;28;20403;-68
2021/12/11 04:06:50;;;;;;;59.05;27.30;;;;;;;1.88;87.00;100616.19;5114065;28;20039;-68
2021/12/11 04:09:18;;;;;;;61.67;26.80;;;;;;;1.89;86.83;100628.31;5096211;28;20044;-67
2021/12/11 04:11:47;;;;;;;74.03;27.85;;;;;;;2.05;86.02;100636.00;5112709;28;20047;-68
2021/12/11 04:14:20;;;;;;;61.75;26.77;;;;;;;1.88;86.20;100642.38;5113639;28;20044;-68
2021/12/11 04:16:48;;;;;;;65.65;27.77;;;;;;;1.79;86.79;100638.56;5113840;28;20492;-68
2021/12/11 04:19:15;;;;;;;66.88;28.35;;;;;;;1.82;87.21;100643.59;5113516;28;20136;-68
2021/12/11 04:21:43;;;;;;;77.05;30.98;;;;;;;2.00;86.50;100648.56;5113221;28;20043;-67
2021/12/11 04:24:16;;;;;;;91.15;33.38;;;;;;;1.95;86.13;100658.47;5113679;27;20080;-68
2021/12/11 04:26:45;;;;;;;103.20;41.58;;;;;;;2.00;86.40;100659.03;5112553;28;20119;-67
2021/12/11 04:29:12;;;;;;;106.43;41.00;;;;;;;1.89;86.99;100667.56;5112418;28;20050;-67
2021/12/11 04:31:42;;;;;;;107.28;41.70;;;;;;;1.90;86.38;100664.03;5076827;28;20051;-67
2021/12/11 04:34:13;;;;;;;121.55;43.40;;;;;;;2.00;86.01;100667.72;5113891;28;20067;-68
2021/12/11 04:36:44;;;;;;;130.80;44.50;;;;;;;1.97;86.60;100678.38;5113645;27;20046;-67
2021/12/11 04:39:14;;;;;;;128.02;44.60;;;;;;;2.11;85.50;100685.31;5113483;28;20507;-66
2021/12/11 04:41:55;;;;;;;95.78;37.50;;;;;;;2.12;85.50;100679.16;5112204;28;20046;-67
2021/12/11 04:44:33;;;;;;;119.55;44.30;;;;;;;1.89;86.76;100685.88;5113238;28;20547;-66
2021/12/11 04:47:06;;;;;;;91.75;37.50;;;;;;;1.87;87.58;100693.84;5112403;28;20498;-67
2021/12/11 04:49:45;;;;;;;65.90;29.52;;;;;;;1.98;86.32;100692.31;5095604;28;20122;-67
2021/12/11 04:52:31;;;;;;;68.95;28.52;;;;;;;1.97;86.05;100691.47;5112125;28;20050;-67
2021/12/11 04:55:32;;;;;;;66.38;27.75;;;;;;;1.85;87.24;100692.25;5111955;28;20047;-67
2021/12/11 04:58:03;;;;;;;59.92;26.63;;;;;;;1.91;87.23;100699.69;5113297;28;20043;-67
2021/12/11 05:03:46;;;;;;;62.15;26.70;;;;;;;2.11;86.22;100709.72;5111387;28;20074;-67
2021/12/11 05:06:42;;;;;;;64.28;27.58;;;;;;;2.11;86.47;100717.59;5111764;28;20522;-67
2021/12/11 05:09:16;;;;;;;68.88;27.08;;;;;;;2.29;85.81;100720.78;5112914;28;20049;-67
2021/12/11 05:11:54;;;;;;;62.78;28.33;;;;;;;2.24;85.00;100714.16;5111797;28;20071;-69
2021/12/11 05:14:25;;;;;;;63.13;28.95;;;;;;;2.16;85.47;100721.66;5106502;28;20408;-67
2021/12/11 05:16:53;;;;;;;70.00;30.25;;;;;;;2.01;86.45;100721.72;5074685;28;20526;-67
2021/12/11 05:19:20;;;;;;;68.07;27.75;;;;;;;1.97;86.46;100722.88;5103356;28;20055;-67
2021/12/11 05:21:47;;;;;;;65.53;28.95;;;;;;;2.01;86.34;100731.38;5111530;28;20040;-67
2021/12/11 05:24:16;;;;;;;64.65;30.20;;;;;;;2.05;86.02;100732.84;5113095;28;20047;-67
2021/12/11 05:26:44;;;;;;;71.35;30.65;;;;;;;2.10;86.17;100741.22;5112872;28;20393;-66
2021/12/11 05:29:11;;;;;;;71.95;29.42;;;;;;;1.99;87.10;100747.16;5091635;28;20047;-66
2021/12/11 05:31:38;;;;;;;75.60;30.55;;;;;;;1.97;86.30;100756.06;5106576;28;20048;-67
2021/12/11 05:34:06;;;;;;;75.75;30.48;;;;;;;1.83;87.03;100751.69;5103680;28;20145;-68
2021/12/11 05:36:35;;;;;;;74.35;31.55;;;;;;;2.03;86.47;100758.25;5105070;28;20040;-67
2021/12/11 05:39:08;;;;;;;85.38;31.73;;;;;;;1.97;86.73;100766.53;5111851;28;20039;-68
2021/12/11 05:41:35;;;;;;;93.15;32.47;;;;;;;2.07;86.71;100764.97;5112889;28;20401;-68
2021/12/11 05:44:03;;;;;;;76.30;31.48;;;;;;;2.10;86.32;100764.78;5111775;28;20052;-68
2021/12/11 05:46:30;;;;;;;75.13;30.88;;;;;;;2.16;86.55;100779.25;5112370;28;20403;-68
2021/12/11 05:48:57;;;;;;;84.25;31.02;;;;;;;2.08;87.10;100782.38;5112558;28;20522;-68
2021/12/11 05:51:25;;;;;;;89.50;33.38;;;;;;;2.27;85.71;100782.88;5111682;28;20081;-67
2021/12/11 05:53:55;;;;;;;89.35;34.35;;;;;;;2.09;86.34;100784.88;5112680;28;20044;-68
2021/12/11 05:56:24;;;;;;;95.10;34.90;;;;;;;2.04;87.10;100797.44;5111525;28;20039;-69
2021/12/11 06:01:27;;;;;;;96.60;36.38;;;;;;;2.31;85.92;100799.22;5112344;28;20040;-67
2021/12/11 06:04:00;;;;;;;105.70;37.92;;;;;;;2.21;86.51;100811.22;5109568;28;20043;-68
2021/12/11 06:06:27;;;;;;;111.40;39.17;;;;;;;2.29;86.36;100807.16;5114111;28;20116;-68
2021/12/11 06:08:53;;;;;;;111.60;40.88;;;;;;;2.35;86.46;100808.53;5116528;28;20068;-68
2021/12/11 06:11:21;;;;;;;113.43;38.83;;;;;;;2.44;86.28;100812.34;5116280;28;20088;-68
2021/12/11 06:13:48;;;;;;;110.43;39.65;;;;;;;2.56;85.21;100818.56;5098265;28;20052;-68
2021/12/11 06:16:16;;;;;;;99.03;38.72;;;;;;;2.55;85.54;100820.34;5116400;28;20036;-67
2021/12/11 06:18:45;;;;;;;104.32;38.75;;;;;;;2.63;85.09;100825.06;5097224;28;20044;-67
2021/12/11 06:21:13;;;;;;;93.65;35.75;;;;;;;2.67;85.14;100827.41;5098373;28;20062;-67
2021/12/11 06:23:40;;;;;;;94.20;34.75;;;;;;;2.65;84.72;100826.63;5115002;28;20058;-67
2021/12/11 06:26:07;;;;;;;88.55;34.67;;;;;;;2.80;84.08;100834.44;5097969;28;20039;-67
2021/12/11 06:28:34;;;;;;;95.07;35.65;;;;;;;2.64;85.08;100837.25;5115986;28;20093;-67
2021/12/11 06:31:03;;;;;;;96.30;33.60;;;;;;;2.73;84.46;100848.88;5116327;27;20445;-68
2021/12/11 06:33:32;;;;;;;90.72;31.83;;;;;;;2.81;84.18;100844.81;5114115;28;20047;-68
2021/12/11 06:36:07;;;;;;;104.53;34.47;;;;;;;2.83;83.40;100858.66;5114408;28;20405;-67
2021/12/11 06:38:35;;;;;;;103.50;33.17;;;;;;;2.73;84.27;100859.34;5114446;28;20044;-68
2021/12/11 06:41:05;;;;;;;91.00;33.33;;;;;;;2.85;84.08;100856.75;5114541;28;20556;-68
2021/12/11 06:43:32;;;;;;;96.55;33.50;;;;;;;2.75;84.58;100863.56;5116100;28;20044;-68
2021/12/11 06:46:00;;;;;;;96.13;34.92;;;;;;;2.77;84.26;100874.78;5114135;28;20502;-67
2021/12/11 06:48:27;;;;;;;99.28;33.30;;;;;;;2.74;84.29;100880.22;5115763;28;20063;-67
2021/12/11 06:50:55;;;;;;;102.15;32.67;;;;;;;2.76;84.60;100885.34;5114471;28;20043;-68
2021/12/11 06:53:31;;;;;;;82.22;29.90;;;;;;;2.97;82.52;100893.59;5115665;28;20105;-68
2021/12/11 06:55:58;;;;;;;85.32;29.63;;;;;;;2.92;82.77;100888.66;5115422;28;20067;-68
2021/12/11 06:58:26;;;;;;;86.07;30.27;;;;;;;2.80;82.90;100897.31;5080474;28;20528;-68
2021/12/11 07:00:54;;;;;;;86.38;29.95;;;;;;;2.73;83.37;100902.13;5097000;28;20067;-68
2021/12/11 07:03:21;;;;;;;84.65;28.75;;;;;;;2.72;83.63;100917.94;5096183;28;20138;-68
2021/12/11 07:05:48;;;;;;;93.03;29.65;;;;;;;2.59;84.58;100910.03;5113953;28;20039;-68
2021/12/11 07:08:16;;;;;;;81.70;28.90;;;;;;;2.58;84.68;100896.06;5114162;28;20040;-67
2021/12/11 07:10:45;;;;;;;88.82;30.35;;;;;;;2.63;84.72;100907.09;5113968;28;20044;-67
2021/12/11 07:13:12;;;;;;;85.53;29.17;;;;;;;2.68;84.54;100907.66;5101230;28;20075;-67
2021/12/11 07:15:39;;;;;;;87.20;29.33;;;;;;;2.72;84.51;100918.78;5112984;28;20213;-67
2021/12/11 07:18:06;;;;;;;87.32;30.05;;;;;;;2.72;84.40;100924.00;5113083;28;20081;-67
2021/12/11 07:20:33;;;;;;;85.50;29.52;;;;;;;2.73;84.48;100941.44;5093221;28;20051;-67
2021/12/11 07:23:00;;;;;;;89.05;30.80;;;;;;;2.76;84.53;100932.50;5094664;28;20055;-67
2021/12/11 07:28:32;;;;;;;82.35;28.73;;;;;;;2.98;83.11;100950.31;5112988;27;20395;-66
2021/12/11 07:31:00;;;;;;;78.60;29.95;;;;;;;2.96;83.60;100947.78;5107423;28;20050;-67
2021/12/11 07:33:27;;;;;;;84.32;29.83;;;;;;;2.95;83.60;100951.34;5108962;28;20063;-67
2021/12/11 07:35:54;;;;;;;83.40;29.98;;;;;;;2.95;83.58;100956.59;5109164;28;20048;-67
2021/12/11 07:38:21;;;;;;;84.97;29.02;;;;;;;2.95;83.68;100955.72;5110466;28;20496;-67
2021/12/11 07:40:54;;;;;;;81.20;29.13;;;;;;;2.96;83.79;100962.66;5110493;28;20055;-67
2021/12/11 07:43:24;;;;;;;80.30;29.20;;;;;;;2.98;83.66;100960.78;5112175;28;20055;-67
2021/12/11 07:45:52;;;;;;;91.22;31.35;;;;;;;3.07;83.42;100971.53;5118237;28;20058;-68
2021/12/11 07:48:21;;;;;;;86.82;31.42;;;;;;;3.12;83.39;100978.25;5110828;28;20488;-68
2021/12/11 07:50:49;;;;;;;82.25;28.17;;;;;;;3.11;83.34;100980.03;5091996;28;20040;-68
2021/12/11 07:53:18;;;;;;;77.43;28.40;;;;;;;3.19;82.89;100985.59;5092043;28;20050;-68
2021/12/11 07:55:46;;;;;;;82.47;29.08;;;;;;;3.13;82.95;100991.25;5108478;28;20046;-68
2021/12/11 07:58:13;;;;;;;94.72;30.67;;;;;;;3.15;83.36;100997.25;5091969;28;20039;-68
2021/12/11 08:00:42;;;;;;;80.90;30.05;;;;;;;3.18;83.44;101002.25;5109661;28;20066;-68
2021/12/11 08:03:12;;;;;;;99.53;30.38;;;;;;;3.23;83.21;101004.59;5109915;28;20461;-68
2021/12/11 08:05:41;;;;;;;90.00;32.15;;;;;;;3.32;83.01;101005.78;5107070;28;20493;-69
2021/12/11 08:08:10;;;;;;;89.28;31.85;;;;;;;3.37;82.92;101009.78;5109287;28;20039;-68
2021/12/11 08:10:41;;;;;;;78.40;30.00;;;;;;;3.37;83.40;101008.97;5108658;28;20073;-68
2021/12/11 08:13:08;;;;;;;78.75;29.13;;;;;;;3.38;83.28;101021.09;5109450;28;20083;-69
2021/12/11 08:15:36;;;;;;;83.63;30.45;;;;;;;3.51;82.16;101027.25;5108428;28;20036;-68
2021/12/11 08:18:06;;;;;;;87.43;28.90;;;;;;;3.41;82.91;101020.91;5091588;28;20048;-69
2021/12/11 08:20:34;;;;;;;84.10;29.88;;;;;;;3.46;83.35;101026.72;5091469;28;20046;-68
2021/12/11 08:23:01;;;;;;;86.68;30.27;;;;;;;3.48;83.28;101031.84;5109508;28;20546;-69
2021/12/11 08:25:30;;;;;;;90.88;31.40;;;;;;;3.53;83.01;101035.00;5108002;28;20040;-68
2021/12/11 08:27:58;;;;;;;85.63;30.60;;;;;;;3.50;83.43;101045.72;5108572;28;20126;-68
2021/12/11 08:30:29;;;;;;;96.53;30.35;;;;;;;3.46;83.67;101039.81;5089628;28;20059;-68
2021/12/11 08:32:56;;;;;;;84.25;31.48;;;;;;;3.48;84.04;101040.56;5108964;28;20062;-68
2021/12/11 08:35:22;;;;;;;87.40;31.88;;;;;;;3.48;84.49;101044.97;5107820;28;20092;-68
2021/12/11 08:37:51;;;;;;;91.63;31.48;;;;;;;3.54;84.08;101052.44;5089411;28;20452;-68
2021/12/11 08:40:22;;;;;;;89.55;31.10;;;;;;;3.48;84.45;101058.91;5093855;28;20489;-68
2021/12/11 08:42:50;;;;;;;89.23;30.70;;;;;;;3.60;83.41;101062.50;5094290;28;20044;-68
2021/12/11 08:45:25;;;;;;;90.38;30.83;;;;;;;3.58;84.28;101064.38;5094106;28;20051;-68
2021/12/11 08:47:57;;;;;;;91.25;32.08;;;;;;;3.51;84.68;101063.09;5093718;28;20040;-70
2021/12/11 08:50:28;;;;;;;83.00;30.15;;;;;;;3.51;84.55;101073.59;5094215;28;20055;-69
2021/12/11 08:52:57;;;;;;;89.18;31.05;;;;;;;3.47;85.07;101078.22;5077621;28;20044;-68
2021/12/11 08:55:29;;;;;;;94.40;31.60;;;;;;;3.54;85.44;101084.75;5094092;28;20097;-68
2021/12/11 08:57:58;;;;;;;92.90;30.30;;;;;;;3.51;85.64;101078.84;5094990;28;20039;-69
2021/12/11 09:00:35;;;;;;;85.55;30.60;;;;;;;3.53;85.34;101083.06;5093779;28;20056;-68
2021/12/11 09:03:08;;;;;;;94.05;30.95;;;;;;;3.41;85.13;101083.88;5076998;28;20454;-68
2021/12/11 09:05:45;;;;;;;91.22;31.77;;;;;;;3.51;85.63;101081.47;5092951;28;20044;-66
2021/12/11 09:08:21;;;;;;;94.68;32.30;;;;;;;3.54;85.88;101079.50;5093639;28;20044;-67
2021/12/11 09:10:55;;;;;;;92.50;32.38;;;;;;;3.53;85.70;101083.06;5076829;28;20047;-67
2021/12/11 09:13:38;;;;;;;92.55;32.70;;;;;;;3.46;86.15;101085.25;5095091;28;20116;-67
2021/12/11 09:16:20;;;;;;;91.95;32.08;;;;;;;3.55;85.90;101082.97;5092290;28;20039;-67
2021/12/11 09:21:33;;;;;;;89.20;31.70;;;;;;;3.44;86.73;101102.03;5110205;27;20414;-69
2021/12/11 09:24:07;;;;;;;102.85;33.25;;;;;;;3.48;87.30;101114.00;5105556;28;20101;-68
2021/12/11 09:26:40;;;;;;;92.50;33.20;;;;;;;3.50;86.92;101098.16;5089900;28;20090;-69
2021/12/11 09:29:17;;;;;;;96.22;33.47;;;;;;;3.57;87.22;101099.47;5072755;28;20493;-70
2021/12/11 09:32:13;;;;;;;93.90;33.58;;;;;;;3.55;87.08;101111.84;5089619;28;20040;-68
2021/12/11 09:34:46;;;;;;;93.72;32.35;;;;;;;3.45;87.58;101112.41;5087972;28;20512;-68
2021/12/11 09:37:14;;;;;;;105.22;34.13;;;;;;;3.53;87.41;101119.78;5071858;28;20037;-68
2021/12/11 09:39:47;;;;;;;108.13;34.88;;;;;;;3.54;87.51;101118.84;5071571;28;20447;-69
2021/12/11 09:45:00;;;;;;;108.05;36.10;;;;;;;3.60;87.96;101120.22;5131020;27;20379;-67
2021/12/11 09:47:31;;;;;;;96.72;34.63;;;;;;;3.65;87.97;101118.16;5112748;28;20384;-68
2021/12/11 09:50:04;;;;;;;99.30;33.00;;;;;;;3.70;88.13;101117.84;5129944;28;20399;-68
2021/12/11 09:52:32;;;;;;;98.30;33.28;;;;;;;3.75;87.72;101128.91;5112448;28;20055;-68
2021/12/11 09:55:07;;;;;;;93.50;33.13;;;;;;;3.79;87.24;101127.75;5129368;28;20062;-67
2021/12/11 09:57:38;;;;;;;101.78;33.63;;;;;;;3.80;87.40;101127.66;5129424;28;20123;-68
2021/12/11 10:00:12;;;;;;;84.88;31.20;;;;;;;3.62;87.46;101137.56;5131321;27;20058;-67
2021/12/11 10:02:51;;;;;;;100.40;33.92;;;;;;;3.85;86.78;101135.22;5138458;27;20789;-68
2021/12/11 10:05:34;;;;;;;94.22;32.88;;;;;;;3.91;87.17;101136.59;5135771;27;20055;-69
2021/12/11 10:08:42;;;;;;;97.47;33.47;;;;;;;3.71;87.54;101137.88;5110846;28;20435;-69
2021/12/11 10:11:08;;;;;;;95.10;31.23;;;;;;;3.79;87.47;101139.09;5110135;28;20044;-69
2021/12/11 10:13:40;;;;;;;89.22;32.85;;;;;;;3.61;88.26;101133.25;5110093;28;20428;-69
2021/12/11 10:16:07;;;;;;;87.97;31.52;;;;;;;3.63;88.39;101141.03;5092367;28;20048;-69
2021/12/11 10:18:34;;;;;;;95.82;32.83;;;;;;;3.52;88.75;101146.13;5110289;28;20096;-69
2021/12/11 10:21:10;;;;;;;92.15;32.95;;;;;;;3.60;88.78;101149.94;5110175;28;20036;-69
2021/12/11 10:23:39;;;;;;;87.57;31.92;;;;;;;3.78;87.70;101145.28;5109701;28;20395;-68
2021/12/11 10:26:10;;;;;;;90.13;32.05;;;;;;;3.83;87.97;101151.06;5109971;28;20043;-68
2021/12/11 10:28:41;;;;;;;100.85;34.00;;;;;;;3.80;88.41;101147.78;5109855;28;20048;-69
2021/12/11 10:31:12;;;;;;;97.00;33.17;;;;;;;3.84;88.48;101158.00;5108119;28;20047;-69
2021/12/11 10:33:39;;;;;;;98.30;33.88;;;;;;;3.73;88.03;101146.50;5109700;28;20131;-68
2021/12/11 10:36:13;;;;;;;103.53;33.15;;;;;;;3.74;88.54;101156.91;5108416;28;20040;-68
2021/12/11 10:38:41;;;;;;;97.35;32.95;;;;;;;3.63;88.81;101167.25;5108683;28;20500;-70
2021/12/11 10:41:21;;;;;;;90.50;31.95;;;;;;;3.57;88.54;101170.28;5109142;28;20039;-68
2021/12/11 10:43:55;;;;;;;89.35;31.45;;;;;;;3.84;87.75;101171.13;5091920;28;20040;-68
2021/12/11 10:46:27;;;;;;;84.55;31.48;;;;;;;3.82;87.82;101162.50;5109539;28;20040;-68
2021/12/11 10:48:54;;;;;;;90.25;32.45;;;;;;;3.69;88.67;101177.34;5142859;27;20043;-68
2021/12/11 10:51:26;;;;;;;103.47;32.33;;;;;;;3.69;88.17;101172.09;5130051;27;20080;-68
2021/12/11 10:53:54;;;;;;;91.88;31.10;;;;;;;3.76;88.94;101160.25;5128200;27;20096;-68
2021/12/11 10:56:22;;;;;;;89.18;32.10;;;;;;;3.85;88.97;101164.91;5111790;28;20058;-68
2021/12/11 10:58:55;;;;;;;87.25;32.17;;;;;;;3.93;88.86;101168.81;5129904;27;20036;-67
2021/12/11 11:01:30;;;;;;;90.03;31.58;;;;;;;3.97;89.01;101165.06;5128111;27;20407;-68
2021/12/11 11:04:07;;;;;;;88.00;30.38;;;;;;;4.03;88.66;101170.75;5126825;28;20039;-68
2021/12/11 11:06:35;;;;;;;90.32;31.17;;;;;;;4.04;88.69;101166.34;5129688;27;20039;-67
2021/12/11 11:09:05;;;;;;;90.00;31.13;;;;;;;4.04;88.63;101169.81;5128450;27;20039;-69
2021/12/11 11:11:34;;;;;;;83.38;29.27;;;;;;;3.95;88.56;101170.41;5128191;27;20047;-67
2021/12/11 11:14:02;;;;;;;86.65;30.05;;;;;;;4.00;88.06;101164.84;5099149;28;20063;-68
2021/12/11 11:16:29;;;;;;;94.50;31.63;;;;;;;3.94;88.31;101173.97;5115979;28;20035;-68
2021/12/11 11:18:56;;;;;;;83.97;30.02;;;;;;;4.03;88.49;101172.53;5114265;28;20036;-68
2021/12/11 11:21:31;;;;;;;83.85;30.48;;;;;;;4.10;88.64;101168.56;5114297;28;20511;-68
2021/12/11 11:23:58;;;;;;;84.50;30.65;;;;;;;4.15;89.11;101179.59;5115030;28;20114;-68
2021/12/11 11:26:29;;;;;;;79.65;29.20;;;;;;;4.31;88.25;101189.09;5115586;28;20097;-68
2021/12/11 11:28:58;;;;;;;89.82;30.13;;;;;;;4.29;88.74;101191.81;5101676;28;20055;-69
2021/12/11 11:31:33;;;;;;;80.00;28.80;;;;;;;4.28;88.22;101192.75;5091759;28;20116;-69
2021/12/11 11:34:04;;;;;;;89.47;30.48;;;;;;;4.36;88.77;101203.59;5077218;28;20055;-69
2021/12/11 11:36:32;;;;;;;80.93;28.45;;;;;;;4.38;88.85;101203.50;5098428;28;20040;-69
2021/12/11 11:39:02;;;;;;;77.35;28.63;;;;;;;4.47;88.18;101202.88;5115329;28;20043;-68
2021/12/11 11:41:40;;;;;;;80.50;28.40;;;;;;;4.45;88.16;101207.38;5113818;28;20047;-69
2021/12/11 11:44:09;;;;;;;80.63;30.02;;;;;;;4.33;88.64;101214.31;5114004;28;20050;-69
2021/12/11 11:46:38;;;;;;;77.40;29.35;;;;;;;4.53;88.17;101209.50;5113779;28;20047;-69
2021/12/11 11:49:07;;;;;;;76.82;29.20;;;;;;;4.49;88.46;101216.75;5094470;28;20047;-69
2021/12/11 11:51:39;;;;;;;75.82;27.25;;;;;;;4.51;88.08;101214.88;5093144;28;20399;-69
2021/12/11 11:54:07;;;;;;;83.85;30.38;;;;;;;4.58;88.52;101215.28;5093464;28;20043;-69
2021/12/11 11:56:40;;;;;;;82.80;28.38;;;;;;;4.60;88.89;101219.50;5102113;28;20164;-68
2021/12/11 11:59:09;;;;;;;77.53;28.45;;;;;;;4.71;88.38;101220.56;5114067;28;20063;-68